sensor_id;sensor_type;location;lat;lon;timestamp;temperature;humidity
20839;DHT22;10580;51.092;6.828;2022-09-16T00:01:26;13.00;99.90
20839;DHT22;10580;51.092;6.828;2022-09-16T00:03:56;13.00;99.90
20839;DHT22;10580;51.092;6.828;2022-09-16T00:06:24;13.00;99.90
20839;DHT22;10580;51.092;6.828;2022-09-16T00:08:50;13.00;99.90
20839;DHT22;10580;51.092;6.828;2022-09-16T00:11:17;13.00;99.90
20839;DHT22;10580;51.092;6.828;2022-09-16T00:13:43;13.00;99.90
20839;DHT22;10580;51.092;6.828;2022-09-16T00:16:12;13.00;99.90
20839;DHT22;10580;51.092;6.828;2022-09-16T00:18:40;12.90;99.90
20839;DHT22;10580;51.092;6.828;2022-09-16T00:21:07;12.80;99.90
20839;DHT22;10580;51.092;6.828;2022-09-16T00:23:34;12.80;99.90
20839;DHT22;10580;51.092;6.828;2022-09-16T00:26:00;12.80;99.90
20839;DHT22;10580;51.092;6.828;2022-09-16T00:28:26;12.80;99.90
20839;DHT22;10580;51.092;6.828;2022-09-16T00:30:51;12.80;99.90
20839;DHT22;10580;51.092;6.828;2022-09-16T00:33:18;12.90;99.90
20839;DHT22;10580;51.092;6.828;2022-09-16T00:35:44;12.80;99.90
20839;DHT22;10580;51.092;6.828;2022-09-16T00:38:09;12.80;99.90
20839;DHT22;10580;51.092;6.828;2022-09-16T00:40:43;12.80;99.90
20839;DHT22;10580;51.092;6.828;2022-09-16T00:43:13;12.80;99.90
20839;DHT22;10580;51.092;6.828;2022-09-16T00:45:40;12.80;99.90
20839;DHT22;10580;51.092;6.828;2022-09-16T00:48:08;12.80;99.90
20839;DHT22;10580;51.092;6.828;2022-09-16T00:50:47;12.70;99.90
20839;DHT22;10580;51.092;6.828;2022-09-16T00:53:19;12.70;99.90
20839;DHT22;10580;51.092;6.828;2022-09-16T00:55:46;12.70;99.90
20839;DHT22;10580;51.092;6.828;2022-09-16T00:58:19;12.60;99.90
20839;DHT22;10580;51.092;6.828;2022-09-16T01:00:46;12.60;99.90
20839;DHT22;10580;51.092;6.828;2022-09-16T01:03:12;12.60;99.90
20839;DHT22;10580;51.092;6.828;2022-09-16T01:05:37;12.50;99.90
20839;DHT22;10580;51.092;6.828;2022-09-16T01:08:03;12.50;99.90
20839;DHT22;10580;51.092;6.828;2022-09-16T01:10:29;12.50;99.90
20839;DHT22;10580;51.092;6.828;2022-09-16T01:13:02;12.40;99.90
20839;DHT22;10580;51.092;6.828;2022-09-16T01:55:03;12.70;99.90
20839;DHT22;10580;51.092;6.828;2022-09-16T01:57:37;12.70;99.90
20839;DHT22;10580;51.092;6.828;2022-09-16T02:00:09;12.70;99.90
20839;DHT22;10580;51.092;6.828;2022-09-16T02:02:40;12.70;99.90
20839;DHT22;10580;51.092;6.828;2022-09-16T02:05:37;12.70;99.90
20839;DHT22;10580;51.092;6.828;2022-09-16T02:08:17;12.80;99.90
20839;DHT22;10580;51.092;6.828;2022-09-16T02:10:48;12.80;99.90
20839;DHT22;10580;51.092;6.828;2022-09-16T02:13:22;12.80;99.90
20839;DHT22;10580;51.092;6.828;2022-09-16T02:15:51;12.80;99.90
20839;DHT22;10580;51.092;6.828;2022-09-16T02:18:22;12.80;99.90
20839;DHT22;10580;51.092;6.828;2022-09-16T02:20:51;12.80;99.90
20839;DHT22;10580;51.092;6.828;2022-09-16T02:23:21;12.80;99.90
20839;DHT22;10580;51.092;6.828;2022-09-16T02:25:49;12.80;99.90
20839;DHT22;10580;51.092;6.828;2022-09-16T02:28:19;12.90;99.90
20839;DHT22;10580;51.092;6.828;2022-09-16T02:30:49;12.80;99.90
20839;DHT22;10580;51.092;6.828;2022-09-16T02:33:16;12.90;99.90
20839;DHT22;10580;51.092;6.828;2022-09-16T02:35:46;12.90;99.90
20839;DHT22;10580;51.092;6.828;2022-09-16T02:38:21;12.90;99.90
20839;DHT22;10580;51.092;6.828;2022-09-16T02:40:56;13.00;99.90
20839;DHT22;10580;51.092;6.828;2022-09-16T02:43:23;12.90;99.90
20839;DHT22;10580;51.092;6.828;2022-09-16T02:54:28;12.90;99.90
20839;DHT22;10580;51.092;6.828;2022-09-16T02:56:57;12.90;99.90
20839;DHT22;10580;51.092;6.828;2022-09-16T02:59:23;12.90;99.90
20839;DHT22;10580;51.092;6.828;2022-09-16T03:01:49;12.90;99.90
20839;DHT22;10580;51.092;6.828;2022-09-16T03:04:17;12.80;99.90
20839;DHT22;10580;51.092;6.828;2022-09-16T03:06:45;12.80;99.90
20839;DHT22;10580;51.092;6.828;2022-09-16T03:09:12;12.80;99.90
20839;DHT22;10580;51.092;6.828;2022-09-16T03:11:50;12.70;99.90
20839;DHT22;10580;51.092;6.828;2022-09-16T03:14:32;12.70;99.90
20839;DHT22;10580;51.092;6.828;2022-09-16T03:17:46;12.70;99.90
20839;DHT22;10580;51.092;6.828;2022-09-16T03:27:51;12.60;99.90
20839;DHT22;10580;51.092;6.828;2022-09-16T03:30:18;12.50;99.90
20839;DHT22;10580;51.092;6.828;2022-09-16T03:33:01;12.40;99.90
20839;DHT22;10580;51.092;6.828;2022-09-16T03:35:38;12.40;99.90
20839;DHT22;10580;51.092;6.828;2022-09-16T03:38:07;12.30;99.90
20839;DHT22;10580;51.092;6.828;2022-09-16T03:40:33;12.30;99.90
20839;DHT22;10580;51.092;6.828;2022-09-16T03:42:59;12.20;99.90
20839;DHT22;10580;51.092;6.828;2022-09-16T03:45:25;12.20;99.90
20839;DHT22;10580;51.092;6.828;2022-09-16T03:47:52;12.20;99.90
20839;DHT22;10580;51.092;6.828;2022-09-16T03:50:19;12.10;99.90
20839;DHT22;10580;51.092;6.828;2022-09-16T03:52:44;12.10;99.90
20839;DHT22;10580;51.092;6.828;2022-09-16T03:55:10;12.10;99.90
20839;DHT22;10580;51.092;6.828;2022-09-16T03:57:36;12.00;99.90
20839;DHT22;10580;51.092;6.828;2022-09-16T04:00:04;12.10;99.90
20839;DHT22;10580;51.092;6.828;2022-09-16T04:02:30;12.00;99.90
20839;DHT22;10580;51.092;6.828;2022-09-16T04:04:55;12.00;99.90
20839;DHT22;10580;51.092;6.828;2022-09-16T04:07:21;12.00;99.90
20839;DHT22;10580;51.092;6.828;2022-09-16T04:09:46;12.10;99.90
20839;DHT22;10580;51.092;6.828;2022-09-16T04:12:12;12.10;99.90
20839;DHT22;10580;51.092;6.828;2022-09-16T04:14:38;12.10;99.90
20839;DHT22;10580;51.092;6.828;2022-09-16T04:17:04;12.20;99.90
20839;DHT22;10580;51.092;6.828;2022-09-16T04:19:29;12.20;99.90
20839;DHT22;10580;51.092;6.828;2022-09-16T04:21:55;12.20;99.90
20839;DHT22;10580;51.092;6.828;2022-09-16T04:24:21;12.20;99.90
20839;DHT22;10580;51.092;6.828;2022-09-16T04:26:46;12.30;99.90
20839;DHT22;10580;51.092;6.828;2022-09-16T04:29:12;12.20;99.90
20839;DHT22;10580;51.092;6.828;2022-09-16T04:31:37;12.20;99.90
20839;DHT22;10580;51.092;6.828;2022-09-16T04:34:04;12.30;99.90
20839;DHT22;10580;51.092;6.828;2022-09-16T04:36:30;12.30;99.90
20839;DHT22;10580;51.092;6.828;2022-09-16T04:38:56;12.30;99.90
20839;DHT22;10580;51.092;6.828;2022-09-16T04:41:23;12.30;99.90
20839;DHT22;10580;51.092;6.828;2022-09-16T04:43:57;12.30;99.90
20839;DHT22;10580;51.092;6.828;2022-09-16T04:46:24;12.30;99.90
20839;DHT22;10580;51.092;6.828;2022-09-16T04:48:51;12.30;99.90
20839;DHT22;10580;51.092;6.828;2022-09-16T04:51:17;12.30;99.90
20839;DHT22;10580;51.092;6.828;2022-09-16T04:53:44;12.30;99.90
20839;DHT22;10580;51.092;6.828;2022-09-16T04:56:13;12.30;99.90
20839;DHT22;10580;51.092;6.828;2022-09-16T04:58:48;12.20;99.90
20839;DHT22;10580;51.092;6.828;2022-09-16T05:01:18;12.20;99.90
20839;DHT22;10580;51.092;6.828;2022-09-16T05:03:46;12.20;99.90
20839;DHT22;10580;51.092;6.828;2022-09-16T05:06:15;12.20;99.90
20839;DHT22;10580;51.092;6.828;2022-09-16T05:08:41;12.20;99.90
20839;DHT22;10580;51.092;6.828;2022-09-16T05:11:15;12.20;99.90
20839;DHT22;10580;51.092;6.828;2022-09-16T05:13:41;12.20;99.90
20839;DHT22;10580;51.092;6.828;2022-09-16T05:16:10;12.30;99.90
20839;DHT22;10580;51.092;6.828;2022-09-16T05:18:38;12.30;99.90
20839;DHT22;10580;51.092;6.828;2022-09-16T05:21:05;12.30;99.90
20839;DHT22;10580;51.092;6.828;2022-09-16T05:23:32;12.30;99.90
20839;DHT22;10580;51.092;6.828;2022-09-16T05:28:29;12.30;99.90
20839;DHT22;10580;51.092;6.828;2022-09-16T05:30:54;12.40;99.90
20839;DHT22;10580;51.092;6.828;2022-09-16T05:33:20;12.40;99.90
20839;DHT22;10580;51.092;6.828;2022-09-16T05:35:45;12.40;99.90
20839;DHT22;10580;51.092;6.828;2022-09-16T05:38:12;12.40;99.90
20839;DHT22;10580;51.092;6.828;2022-09-16T05:40:38;12.40;99.90
20839;DHT22;10580;51.092;6.828;2022-09-16T05:43:04;12.30;99.90
20839;DHT22;10580;51.092;6.828;2022-09-16T05:45:29;12.40;99.90
20839;DHT22;10580;51.092;6.828;2022-09-16T05:47:55;12.40;99.90
20839;DHT22;10580;51.092;6.828;2022-09-16T05:50:21;12.40;99.90
20839;DHT22;10580;51.092;6.828;2022-09-16T05:52:46;12.50;99.90
20839;DHT22;10580;51.092;6.828;2022-09-16T05:55:12;12.40;99.90
20839;DHT22;10580;51.092;6.828;2022-09-16T05:57:37;12.50;99.90
20839;DHT22;10580;51.092;6.828;2022-09-16T06:00:04;12.50;99.90
20839;DHT22;10580;51.092;6.828;2022-09-16T06:02:30;12.50;99.90
20839;DHT22;10580;51.092;6.828;2022-09-16T06:04:56;12.70;99.90
20839;DHT22;10580;51.092;6.828;2022-09-16T06:07:21;12.70;99.90
20839;DHT22;10580;51.092;6.828;2022-09-16T06:09:47;12.70;99.90
20839;DHT22;10580;51.092;6.828;2022-09-16T06:12:13;12.70;99.90
20839;DHT22;10580;51.092;6.828;2022-09-16T06:14:39;12.70;99.90
20839;DHT22;10580;51.092;6.828;2022-09-16T06:17:06;12.70;99.90
20839;DHT22;10580;51.092;6.828;2022-09-16T06:19:31;12.80;99.90
20839;DHT22;10580;51.092;6.828;2022-09-16T06:22:22;12.80;99.90
20839;DHT22;10580;51.092;6.828;2022-09-16T06:24:54;12.70;99.90
20839;DHT22;10580;51.092;6.828;2022-09-16T06:27:39;12.80;99.90
20839;DHT22;10580;51.092;6.828;2022-09-16T06:30:05;12.80;99.90
20839;DHT22;10580;51.092;6.828;2022-09-16T06:32:31;12.90;99.90
20839;DHT22;10580;51.092;6.828;2022-09-16T06:34:56;13.00;99.90
20839;DHT22;10580;51.092;6.828;2022-09-16T06:37:22;13.00;99.90
20839;DHT22;10580;51.092;6.828;2022-09-16T06:39:48;13.00;99.90
20839;DHT22;10580;51.092;6.828;2022-09-16T06:42:13;13.10;99.90
20839;DHT22;10580;51.092;6.828;2022-09-16T06:44:39;13.10;99.90
20839;DHT22;10580;51.092;6.828;2022-09-16T06:47:05;13.20;99.90
20839;DHT22;10580;51.092;6.828;2022-09-16T06:49:30;13.20;99.90
20839;DHT22;10580;51.092;6.828;2022-09-16T06:51:56;13.20;99.90
20839;DHT22;10580;51.092;6.828;2022-09-16T06:54:21;13.20;99.90
20839;DHT22;10580;51.092;6.828;2022-09-16T06:56:47;13.20;99.90
20839;DHT22;10580;51.092;6.828;2022-09-16T06:59:12;13.20;99.90
20839;DHT22;10580;51.092;6.828;2022-09-16T07:01:39;13.10;99.90
20839;DHT22;10580;51.092;6.828;2022-09-16T07:04:07;13.10;99.90
20839;DHT22;10580;51.092;6.828;2022-09-16T07:06:36;13.20;99.90
20839;DHT22;10580;51.092;6.828;2022-09-16T07:09:02;13.20;99.90
20839;DHT22;10580;51.092;6.828;2022-09-16T07:11:28;13.20;99.90
20839;DHT22;10580;51.092;6.828;2022-09-16T07:13:54;13.20;99.90
20839;DHT22;10580;51.092;6.828;2022-09-16T07:16:22;13.20;99.90
20839;DHT22;10580;51.092;6.828;2022-09-16T07:18:52;13.20;99.90
20839;DHT22;10580;51.092;6.828;2022-09-16T07:21:19;13.20;99.90
20839;DHT22;10580;51.092;6.828;2022-09-16T07:23:45;13.20;99.90
20839;DHT22;10580;51.092;6.828;2022-09-16T07:28:39;13.20;99.90
20839;DHT22;10580;51.092;6.828;2022-09-16T07:31:07;13.20;99.90
20839;DHT22;10580;51.092;6.828;2022-09-16T07:33:44;13.20;99.90
20839;DHT22;10580;51.092;6.828;2022-09-16T07:36:12;13.20;99.90
20839;DHT22;10580;51.092;6.828;2022-09-16T07:38:38;13.20;99.90
20839;DHT22;10580;51.092;6.828;2022-09-16T07:41:08;13.30;99.90
20839;DHT22;10580;51.092;6.828;2022-09-16T07:43:49;13.40;99.90
20839;DHT22;10580;51.092;6.828;2022-09-16T07:46:50;13.40;99.90
20839;DHT22;10580;51.092;6.828;2022-09-16T07:52:38;13.70;99.90
20839;DHT22;10580;51.092;6.828;2022-09-16T07:55:34;13.90;99.90
20839;DHT22;10580;51.092;6.828;2022-09-16T08:01:42;14.00;99.90
20839;DHT22;10580;51.092;6.828;2022-09-16T08:04:11;14.20;99.90
20839;DHT22;10580;51.092;6.828;2022-09-16T08:06:40;16.20;99.90
20839;DHT22;10580;51.092;6.828;2022-09-16T08:09:26;17.70;1.00
20839;DHT22;10580;51.092;6.828;2022-09-16T08:12:23;19.90;1.00
20839;DHT22;10580;51.092;6.828;2022-09-16T08:14:49;20.60;99.90
20839;DHT22;10580;51.092;6.828;2022-09-16T08:17:14;21.70;99.90
20839;DHT22;10580;51.092;6.828;2022-09-16T08:19:59;20.30;1.00
20839;DHT22;10580;51.092;6.828;2022-09-16T08:22:30;19.40;11.00
20839;DHT22;10580;51.092;6.828;2022-09-16T08:25:24;18.60;1.00
20839;DHT22;10580;51.092;6.828;2022-09-16T08:27:51;17.70;1.00
20839;DHT22;10580;51.092;6.828;2022-09-16T08:30:16;17.40;1.00
20839;DHT22;10580;51.092;6.828;2022-09-16T08:32:43;17.80;1.00
20839;DHT22;10580;51.092;6.828;2022-09-16T08:35:09;17.80;1.00
20839;DHT22;10580;51.092;6.828;2022-09-16T08:37:34;17.90;1.00
20839;DHT22;10580;51.092;6.828;2022-09-16T08:40:01;18.50;1.00
20839;DHT22;10580;51.092;6.828;2022-09-16T08:56:12;23.50;99.90
20839;DHT22;10580;51.092;6.828;2022-09-16T08:58:44;25.30;99.90
20839;DHT22;10580;51.092;6.828;2022-09-16T09:04:19;23.20;99.90
20839;DHT22;10580;51.092;6.828;2022-09-16T09:19:04;18.00;99.90
20839;DHT22;10580;51.092;6.828;2022-09-16T09:22:04;17.60;1.00
20839;DHT22;10580;51.092;6.828;2022-09-16T09:30:43;19.50;99.90
20839;DHT22;10580;51.092;6.828;2022-09-16T09:36:41;18.20;1.00
20839;DHT22;10580;51.092;6.828;2022-09-16T09:42:19;17.30;1.00
20839;DHT22;10580;51.092;6.828;2022-09-16T09:44:56;17.00;1.00
20839;DHT22;10580;51.092;6.828;2022-09-16T09:53:32;16.50;1.00
20839;DHT22;10580;51.092;6.828;2022-09-16T09:56:13;16.40;1.00
20839;DHT22;10580;51.092;6.828;2022-09-16T10:01:37;17.00;1.00
20839;DHT22;10580;51.092;6.828;2022-09-16T10:04:15;16.90;1.00
20839;DHT22;10580;51.092;6.828;2022-09-16T10:06:44;17.10;1.00
20839;DHT22;10580;51.092;6.828;2022-09-16T10:23:00;17.80;1.00
20839;DHT22;10580;51.092;6.828;2022-09-16T10:25:27;17.70;99.90
20839;DHT22;10580;51.092;6.828;2022-09-16T10:45:27;16.80;1.00
20839;DHT22;10580;51.092;6.828;2022-09-16T10:47:57;16.60;99.90
20839;DHT22;10580;51.092;6.828;2022-09-16T10:50:26;16.40;1.00
20839;DHT22;10580;51.092;6.828;2022-09-16T10:52:53;16.40;1.00
20839;DHT22;10580;51.092;6.828;2022-09-16T10:55:20;16.60;1.00
20839;DHT22;10580;51.092;6.828;2022-09-16T10:57:49;16.80;1.00
20839;DHT22;10580;51.092;6.828;2022-09-16T11:01:09;16.80;99.90
20839;DHT22;10580;51.092;6.828;2022-09-16T11:10:52;17.50;99.90
20839;DHT22;10580;51.092;6.828;2022-09-16T11:19:47;17.00;99.90
20839;DHT22;10580;51.092;6.828;2022-09-16T11:22:36;17.80;99.90
20839;DHT22;10580;51.092;6.828;2022-09-16T11:31:06;18.30;1.00
20839;DHT22;10580;51.092;6.828;2022-09-16T11:43:38;19.30;99.90
20839;DHT22;10580;51.092;6.828;2022-09-16T11:46:08;19.20;1.00
20839;DHT22;10580;51.092;6.828;2022-09-16T11:51:40;19.10;2.70
20839;DHT22;10580;51.092;6.828;2022-09-16T11:56:58;18.30;1.00
20839;DHT22;10580;51.092;6.828;2022-09-16T12:03:37;16.70;99.90
20839;DHT22;10580;51.092;6.828;2022-09-16T12:12:08;13.80;99.90
20839;DHT22;10580;51.092;6.828;2022-09-16T12:18:08;13.00;99.90
20839;DHT22;10580;51.092;6.828;2022-09-16T12:23:51;12.60;99.90
20839;DHT22;10580;51.092;6.828;2022-09-16T12:26:29;12.50;99.90
20839;DHT22;10580;51.092;6.828;2022-09-16T12:29:11;12.50;99.90
20839;DHT22;10580;51.092;6.828;2022-09-16T12:31:52;12.60;99.90
20839;DHT22;10580;51.092;6.828;2022-09-16T12:37:02;12.90;99.90
20839;DHT22;10580;51.092;6.828;2022-09-16T12:39:29;13.00;99.90
20839;DHT22;10580;51.092;6.828;2022-09-16T12:47:21;13.60;99.90
20839;DHT22;10580;51.092;6.828;2022-09-16T12:52:49;14.00;99.90
20839;DHT22;10580;51.092;6.828;2022-09-16T13:45:39;14.20;99.90
20839;DHT22;10580;51.092;6.828;2022-09-16T13:48:16;14.10;84.00
20839;DHT22;10580;51.092;6.828;2022-09-16T13:50:52;14.20;99.90
20839;DHT22;10580;51.092;6.828;2022-09-16T13:53:35;14.20;99.90
20839;DHT22;10580;51.092;6.828;2022-09-16T13:56:49;14.40;99.90
20839;DHT22;10580;51.092;6.828;2022-09-16T14:02:31;14.70;99.90
20839;DHT22;10580;51.092;6.828;2022-09-16T14:08:13;15.10;77.40
20839;DHT22;10580;51.092;6.828;2022-09-16T14:13:12;14.90;24.10
20839;DHT22;10580;51.092;6.828;2022-09-16T14:15:43;14.70;49.20
20839;DHT22;10580;51.092;6.828;2022-09-16T14:18:13;14.70;82.70
20839;DHT22;10580;51.092;6.828;2022-09-16T14:21:00;14.60;92.20
20839;DHT22;10580;51.092;6.828;2022-09-16T14:23:27;14.60;62.30
20839;DHT22;10580;51.092;6.828;2022-09-16T14:25:53;14.40;21.90
20839;DHT22;10580;51.092;6.828;2022-09-16T14:28:24;14.40;32.20
20839;DHT22;10580;51.092;6.828;2022-09-16T14:30:54;14.50;53.30
20839;DHT22;10580;51.092;6.828;2022-09-16T14:33:44;14.50;48.70
20839;DHT22;10580;51.092;6.828;2022-09-16T14:36:26;14.60;53.80
20839;DHT22;10580;51.092;6.828;2022-09-16T14:38:56;14.60;70.30
20839;DHT22;10580;51.092;6.828;2022-09-16T14:41:37;14.60;86.10
20839;DHT22;10580;51.092;6.828;2022-09-16T14:49:18;14.50;99.90
20839;DHT22;10580;51.092;6.828;2022-09-16T14:51:48;14.50;99.90
20839;DHT22;10580;51.092;6.828;2022-09-16T14:54:18;14.80;21.20
20839;DHT22;10580;51.092;6.828;2022-09-16T14:57:01;15.20;1.00
20839;DHT22;10580;51.092;6.828;2022-09-16T14:59:33;15.60;1.00
20839;DHT22;10580;51.092;6.828;2022-09-16T15:02:23;15.70;1.00
20839;DHT22;10580;51.092;6.828;2022-09-16T15:04:59;15.60;1.00
20839;DHT22;10580;51.092;6.828;2022-09-16T15:07:29;15.60;1.00
20839;DHT22;10580;51.092;6.828;2022-09-16T15:10:00;15.70;1.00
20839;DHT22;10580;51.092;6.828;2022-09-16T15:12:33;15.70;1.00
20839;DHT22;10580;51.092;6.828;2022-09-16T15:15:18;15.50;1.00
20839;DHT22;10580;51.092;6.828;2022-09-16T15:18:11;15.50;1.00
20839;DHT22;10580;51.092;6.828;2022-09-16T15:20:41;15.10;1.00
20839;DHT22;10580;51.092;6.828;2022-09-16T15:23:19;14.90;1.00
20839;DHT22;10580;51.092;6.828;2022-09-16T15:26:13;14.70;1.00
20839;DHT22;10580;51.092;6.828;2022-09-16T15:31:35;14.40;1.00
20839;DHT22;10580;51.092;6.828;2022-09-16T15:34:20;14.40;1.00
20839;DHT22;10580;51.092;6.828;2022-09-16T15:36:54;14.30;1.00
20839;DHT22;10580;51.092;6.828;2022-09-16T15:44:57;14.10;28.40
20839;DHT22;10580;51.092;6.828;2022-09-16T15:47:23;14.20;23.30
20839;DHT22;10580;51.092;6.828;2022-09-16T15:50:06;14.10;26.20
20839;DHT22;10580;51.092;6.828;2022-09-16T15:52:47;14.00;12.00
20839;DHT22;10580;51.092;6.828;2022-09-16T15:55:25;14.10;6.20
20839;DHT22;10580;51.092;6.828;2022-09-16T15:57:57;14.20;8.00
20839;DHT22;10580;51.092;6.828;2022-09-16T16:00:23;14.30;9.00
20839;DHT22;10580;51.092;6.828;2022-09-16T16:02:57;14.40;1.00
20839;DHT22;10580;51.092;6.828;2022-09-16T16:05:27;14.40;1.00
20839;DHT22;10580;51.092;6.828;2022-09-16T16:08:00;14.30;1.00
20839;DHT22;10580;51.092;6.828;2022-09-16T16:10:29;14.30;1.00
20839;DHT22;10580;51.092;6.828;2022-09-16T16:12:55;14.30;1.00
20839;DHT22;10580;51.092;6.828;2022-09-16T16:15:31;14.20;1.00
20839;DHT22;10580;51.092;6.828;2022-09-16T16:18:02;14.20;1.00
20839;DHT22;10580;51.092;6.828;2022-09-16T16:20:29;14.20;1.00
20839;DHT22;10580;51.092;6.828;2022-09-16T16:22:58;14.10;1.00
20839;DHT22;10580;51.092;6.828;2022-09-16T16:25:25;14.10;1.00
20839;DHT22;10580;51.092;6.828;2022-09-16T16:27:51;14.20;1.00
20839;DHT22;10580;51.092;6.828;2022-09-16T16:30:16;14.10;1.00
20839;DHT22;10580;51.092;6.828;2022-09-16T16:32:43;14.10;1.00
20839;DHT22;10580;51.092;6.828;2022-09-16T16:35:09;14.10;1.00
20839;DHT22;10580;51.092;6.828;2022-09-16T16:37:35;14.00;1.00
20839;DHT22;10580;51.092;6.828;2022-09-16T16:40:02;14.00;1.00
20839;DHT22;10580;51.092;6.828;2022-09-16T16:42:28;13.90;1.00
20839;DHT22;10580;51.092;6.828;2022-09-16T16:44:54;13.90;1.00
20839;DHT22;10580;51.092;6.828;2022-09-16T16:47:21;13.90;27.10
20839;DHT22;10580;51.092;6.828;2022-09-16T16:49:46;13.90;37.00
20839;DHT22;10580;51.092;6.828;2022-09-16T16:52:12;13.90;15.90
20839;DHT22;10580;51.092;6.828;2022-09-16T16:54:37;13.90;45.00
20839;DHT22;10580;51.092;6.828;2022-09-16T16:57:03;13.90;29.70
20839;DHT22;10580;51.092;6.828;2022-09-16T16:59:29;13.70;9.10
20839;DHT22;10580;51.092;6.828;2022-09-16T17:01:56;13.60;18.40
20839;DHT22;10580;51.092;6.828;2022-09-16T17:04:23;13.60;39.90
20839;DHT22;10580;51.092;6.828;2022-09-16T17:06:49;13.50;36.30
20839;DHT22;10580;51.092;6.828;2022-09-16T17:09:15;13.50;73.50
20839;DHT22;10580;51.092;6.828;2022-09-16T17:11:52;13.40;84.60
20839;DHT22;10580;51.092;6.828;2022-09-16T17:14:19;13.40;90.30
20839;DHT22;10580;51.092;6.828;2022-09-16T17:16:44;13.30;99.90
20839;DHT22;10580;51.092;6.828;2022-09-16T17:19:11;13.20;99.90
20839;DHT22;10580;51.092;6.828;2022-09-16T17:21:37;13.10;99.90
20839;DHT22;10580;51.092;6.828;2022-09-16T17:24:04;13.00;99.90
20839;DHT22;10580;51.092;6.828;2022-09-16T17:26:29;13.00;99.90
20839;DHT22;10580;51.092;6.828;2022-09-16T17:28:55;12.90;99.90
20839;DHT22;10580;51.092;6.828;2022-09-16T17:31:27;12.90;99.90
20839;DHT22;10580;51.092;6.828;2022-09-16T17:33:59;12.80;99.90
20839;DHT22;10580;51.092;6.828;2022-09-16T17:36:28;12.80;99.90
20839;DHT22;10580;51.092;6.828;2022-09-16T17:38:55;12.70;99.90
20839;DHT22;10580;51.092;6.828;2022-09-16T17:41:22;12.70;99.90
20839;DHT22;10580;51.092;6.828;2022-09-16T17:43:47;12.60;99.90
20839;DHT22;10580;51.092;6.828;2022-09-16T17:46:17;12.60;99.90
20839;DHT22;10580;51.092;6.828;2022-09-16T17:48:45;12.60;99.90
20839;DHT22;10580;51.092;6.828;2022-09-16T17:51:11;12.50;99.90
20839;DHT22;10580;51.092;6.828;2022-09-16T17:53:38;12.50;99.90
20839;DHT22;10580;51.092;6.828;2022-09-16T17:56:11;12.40;99.90
20839;DHT22;10580;51.092;6.828;2022-09-16T17:58:39;12.40;99.90
20839;DHT22;10580;51.092;6.828;2022-09-16T18:01:16;12.30;99.90
20839;DHT22;10580;51.092;6.828;2022-09-16T18:03:43;12.30;99.90
20839;DHT22;10580;51.092;6.828;2022-09-16T18:06:15;12.20;99.90
20839;DHT22;10580;51.092;6.828;2022-09-16T18:08:42;12.20;99.90
20839;DHT22;10580;51.092;6.828;2022-09-16T18:11:09;12.10;99.90
20839;DHT22;10580;51.092;6.828;2022-09-16T18:13:35;12.10;99.90
20839;DHT22;10580;51.092;6.828;2022-09-16T18:16:07;12.10;99.90
20839;DHT22;10580;51.092;6.828;2022-09-16T18:18:34;12.00;99.90
20839;DHT22;10580;51.092;6.828;2022-09-16T18:21:05;12.00;99.90
20839;DHT22;10580;51.092;6.828;2022-09-16T18:23:31;12.00;99.90
20839;DHT22;10580;51.092;6.828;2022-09-16T18:26:05;12.00;99.90
20839;DHT22;10580;51.092;6.828;2022-09-16T18:28:35;11.90;99.90
20839;DHT22;10580;51.092;6.828;2022-09-16T18:31:05;11.90;99.90
20839;DHT22;10580;51.092;6.828;2022-09-16T18:33:32;11.90;99.90
20839;DHT22;10580;51.092;6.828;2022-09-16T18:35:59;11.90;99.90
20839;DHT22;10580;51.092;6.828;2022-09-16T18:38:26;11.90;99.90
20839;DHT22;10580;51.092;6.828;2022-09-16T18:41:02;11.90;99.90
20839;DHT22;10580;51.092;6.828;2022-09-16T18:43:28;11.90;99.90
20839;DHT22;10580;51.092;6.828;2022-09-16T18:45:53;11.90;99.90
20839;DHT22;10580;51.092;6.828;2022-09-16T18:48:19;11.90;99.90
20839;DHT22;10580;51.092;6.828;2022-09-16T18:50:44;11.90;99.90
20839;DHT22;10580;51.092;6.828;2022-09-16T18:53:10;11.90;99.90
20839;DHT22;10580;51.092;6.828;2022-09-16T18:55:35;12.00;99.90
20839;DHT22;10580;51.092;6.828;2022-09-16T18:58:01;12.00;99.90
20839;DHT22;10580;51.092;6.828;2022-09-16T19:00:26;11.90;99.90
20839;DHT22;10580;51.092;6.828;2022-09-16T19:02:52;12.00;99.90
20839;DHT22;10580;51.092;6.828;2022-09-16T19:05:18;11.90;99.90
20839;DHT22;10580;51.092;6.828;2022-09-16T19:07:43;11.90;99.90
20839;DHT22;10580;51.092;6.828;2022-09-16T19:10:09;11.80;99.90
20839;DHT22;10580;51.092;6.828;2022-09-16T19:12:34;11.80;99.90
20839;DHT22;10580;51.092;6.828;2022-09-16T19:15:00;11.80;99.90
20839;DHT22;10580;51.092;6.828;2022-09-16T19:17:25;11.80;99.90
20839;DHT22;10580;51.092;6.828;2022-09-16T19:19:52;11.80;99.90
20839;DHT22;10580;51.092;6.828;2022-09-16T19:22:17;11.70;99.90
20839;DHT22;10580;51.092;6.828;2022-09-16T19:24:43;11.70;99.90
20839;DHT22;10580;51.092;6.828;2022-09-16T19:27:08;11.70;99.90
20839;DHT22;10580;51.092;6.828;2022-09-16T19:29:34;11.70;99.90
20839;DHT22;10580;51.092;6.828;2022-09-16T19:32:00;11.70;99.90
20839;DHT22;10580;51.092;6.828;2022-09-16T19:34:26;11.70;99.90
20839;DHT22;10580;51.092;6.828;2022-09-16T19:36:53;11.60;99.90
20839;DHT22;10580;51.092;6.828;2022-09-16T19:39:19;11.60;99.90
20839;DHT22;10580;51.092;6.828;2022-09-16T19:41:45;11.60;99.90
20839;DHT22;10580;51.092;6.828;2022-09-16T19:44:15;11.50;99.90
20839;DHT22;10580;51.092;6.828;2022-09-16T19:46:42;11.50;99.90
20839;DHT22;10580;51.092;6.828;2022-09-16T19:49:14;11.50;99.90
20839;DHT22;10580;51.092;6.828;2022-09-16T19:51:40;11.40;99.90
20839;DHT22;10580;51.092;6.828;2022-09-16T19:54:06;11.40;99.90
20839;DHT22;10580;51.092;6.828;2022-09-16T19:56:32;11.30;99.90
20839;DHT22;10580;51.092;6.828;2022-09-16T19:58:58;11.30;99.90
20839;DHT22;10580;51.092;6.828;2022-09-16T20:01:27;11.30;99.90
20839;DHT22;10580;51.092;6.828;2022-09-16T20:03:54;11.20;99.90
20839;DHT22;10580;51.092;6.828;2022-09-16T20:06:26;11.20;99.90
20839;DHT22;10580;51.092;6.828;2022-09-16T20:08:54;11.10;99.90
20839;DHT22;10580;51.092;6.828;2022-09-16T20:11:22;11.10;99.90
20839;DHT22;10580;51.092;6.828;2022-09-16T20:13:56;11.00;99.90
20839;DHT22;10580;51.092;6.828;2022-09-16T20:16:26;11.10;99.90
20839;DHT22;10580;51.092;6.828;2022-09-16T20:18:52;11.00;99.90
20839;DHT22;10580;51.092;6.828;2022-09-16T20:21:21;11.00;99.90
20839;DHT22;10580;51.092;6.828;2022-09-16T20:23:47;10.90;99.90
20839;DHT22;10580;51.092;6.828;2022-09-16T20:26:14;10.90;99.90
20839;DHT22;10580;51.092;6.828;2022-09-16T20:28:45;10.90;99.90
20839;DHT22;10580;51.092;6.828;2022-09-16T20:31:12;10.80;99.90
20839;DHT22;10580;51.092;6.828;2022-09-16T20:33:38;10.80;99.90
20839;DHT22;10580;51.092;6.828;2022-09-16T20:36:06;10.80;99.90